createdAt,value
2019-05-02T00:01:35.994Z,100437.25
2019-05-02T00:06:42.866Z,100428.45
2019-05-02T00:11:58.199Z,100427.61
2019-05-02T00:16:52.311Z,100423.73
2019-05-02T00:21:56.854Z,100415.38
2019-05-02T00:27:02.869Z,100414.16
2019-05-02T00:32:07.056Z,100406.42
2019-05-02T00:37:11.430Z,100402.44
2019-05-02T00:42:17.729Z,100402.83
2019-05-02T00:47:21.235Z,100388.12
2019-05-02T00:52:25.367Z,100389.75
2019-05-02T00:57:29.407Z,100373.55
2019-05-02T01:02:35.889Z,100374.80
2019-05-02T01:07:40.003Z,100373.16
2019-05-02T01:12:45.976Z,100371.12
2019-05-02T01:17:51.073Z,100366.66
2019-05-02T01:22:55.138Z,100369.59
2019-05-02T01:27:59.422Z,100370.75
2019-05-02T01:33:06.610Z,100359.42
2019-05-02T01:38:09.631Z,100359.88
2019-05-02T01:43:32.570Z,100354.94
2019-05-02T01:48:40.225Z,100356.47
2019-05-02T01:53:42.433Z,100343.30
2019-05-02T01:58:53.130Z,100335.30
2019-05-02T02:03:54.890Z,100330.95
2019-05-02T02:09:03.287Z,100321.47
2019-05-02T02:14:07.290Z,100321.81
2019-05-02T02:19:10.639Z,100312.64
2019-05-02T02:24:14.671Z,100306.81
2019-05-02T02:29:19.353Z,100314.16
2019-05-02T02:34:28.988Z,100305.81
2019-05-02T02:39:29.674Z,100309.81
2019-05-02T02:44:39.919Z,100317.81
2019-05-02T02:49:39.558Z,100318.61
2019-05-02T02:54:45.144Z,100306.45
2019-05-02T02:59:49.574Z,100306.75
2019-05-02T03:04:53.629Z,100306.91
2019-05-02T03:09:59.731Z,100307.59
2019-05-02T03:15:03.953Z,100306.74
2019-05-02T03:20:08.085Z,100301.22
2019-05-02T03:25:18.339Z,100308.06
2019-05-02T03:30:33.050Z,100305.56
2019-05-02T03:35:39.631Z,100298.59
2019-05-02T03:40:32.307Z,100298.25
2019-05-02T03:45:40.205Z,100294.11
2019-05-02T03:50:41.733Z,100288.09
2019-05-02T03:55:46.176Z,100293.12
2019-05-02T04:01:00.528Z,100291.26
2019-05-02T04:05:56.086Z,100289.78
2019-05-02T04:11:23.272Z,100289.44
2019-05-02T04:16:29.216Z,100294.28
2019-05-02T04:21:34.901Z,100299.95
2019-05-02T04:26:52.578Z,100297.96
2019-05-02T04:31:47.545Z,100300.94
2019-05-02T04:37:00.140Z,100298.28
2019-05-02T04:42:05.294Z,100298.95
2019-05-02T04:47:16.906Z,100299.30
2019-05-02T04:52:38.500Z,100296.98
2019-05-02T04:57:47.336Z,100299.30
2019-05-02T05:02:50.912Z,100297.48
2019-05-02T05:07:54.085Z,100293.66
2019-05-02T05:12:58.271Z,100301.32
2019-05-02T05:18:09.796Z,100298.00
2019-05-02T05:23:10.095Z,100303.02
2019-05-02T05:28:15.033Z,100304.33
2019-05-02T05:33:19.188Z,100306.02
2019-05-02T05:38:28.580Z,100309.67
2019-05-02T05:43:30.157Z,100320.67
2019-05-02T05:48:37.229Z,100317.03
2019-05-02T05:53:40.750Z,100308.69
2019-05-02T05:58:48.062Z,100316.88
2019-05-02T06:03:50.752Z,100312.52
2019-05-02T06:08:55.453Z,100307.86
2019-05-02T06:14:00.233Z,100313.99
2019-05-02T06:19:04.372Z,100316.02
2019-05-02T06:24:10.934Z,100319.67
2019-05-02T06:29:18.851Z,100305.33
2019-05-02T06:34:21.272Z,100300.73
2019-05-02T06:39:27.010Z,100294.98
2019-05-02T06:44:32.615Z,100286.33
2019-05-02T06:49:37.086Z,100241.59
2019-05-02T06:54:41.162Z,100270.74
2019-05-02T06:59:45.250Z,100271.48
2019-05-02T07:04:49.302Z,100267.41
2019-05-02T07:09:53.584Z,100265.25
2019-05-02T07:15:01.632Z,100271.23
2019-05-02T07:20:05.240Z,100271.23
2019-05-02T07:25:09.798Z,100276.84
2019-05-02T07:30:14.436Z,100273.17
2019-05-02T07:35:24.199Z,100280.66
2019-05-02T07:40:25.020Z,100280.66
2019-05-02T07:45:29.441Z,100284.57
2019-05-02T07:50:33.563Z,100278.95
2019-05-02T07:55:40.703Z,100279.09
2019-05-02T08:00:43.488Z,100272.40
2019-05-02T08:05:47.508Z,100265.61
2019-05-02T08:10:53.822Z,100268.96
2019-05-02T08:15:57.718Z,100270.56
2019-05-02T08:21:01.848Z,100259.59
2019-05-02T08:26:06.774Z,100253.46
2019-05-02T08:31:13.594Z,100264.66
2019-05-02T08:36:16.987Z,100258.02
2019-05-02T08:41:21.479Z,100260.63
2019-05-02T08:46:25.618Z,100263.02
2019-05-02T08:51:30.698Z,100261.30
2019-05-02T08:56:35.072Z,100264.89
2019-05-02T09:01:39.458Z,100276.34
2019-05-02T09:06:46.026Z,100262.03
2019-05-02T09:12:03.282Z,100272.11
2019-05-02T09:16:55.246Z,100264.95
2019-05-02T09:21:59.747Z,100271.50
2019-05-02T09:27:03.758Z,100264.68
2019-05-02T09:32:07.809Z,100262.43
2019-05-02T09:37:12.137Z,100270.47
2019-05-02T09:42:18.938Z,100268.95
2019-05-02T09:47:22.276Z,100262.12
2019-05-02T09:52:26.346Z,100262.59
2019-05-02T09:57:31.933Z,100264.30
2019-05-02T10:02:36.738Z,100268.57
2019-05-02T10:07:41.880Z,100258.06
2019-05-02T10:12:46.029Z,100253.26
2019-05-02T10:17:51.920Z,100256.38
2019-05-02T10:22:55.999Z,100261.02
2019-05-02T10:28:02.227Z,100253.41
2019-05-02T10:33:05.894Z,100253.26
2019-05-02T10:38:17.665Z,100241.00
2019-05-02T10:43:15.656Z,100242.45
2019-05-02T10:48:27.482Z,100239.50
2019-05-02T10:53:25.542Z,100245.86
2019-05-02T10:58:34.159Z,100232.47
2019-05-02T11:03:38.017Z,100236.42
2019-05-02T11:08:46.002Z,100235.92
2019-05-02T11:13:48.180Z,100241.95
2019-05-02T11:18:52.625Z,100235.99
2019-05-02T11:23:57.032Z,100243.18
2019-05-02T11:29:03.066Z,100239.92
2019-05-02T11:34:07.238Z,100243.06
2019-05-02T11:39:19.937Z,100247.55
2019-05-02T11:44:17.343Z,100233.87
2019-05-02T11:49:22.824Z,100228.91
2019-05-02T11:54:27.852Z,100234.31
2019-05-02T11:59:32.317Z,100234.77
2019-05-02T12:04:36.371Z,100223.21
2019-05-02T12:09:44.081Z,100229.50
2019-05-02T12:14:46.206Z,100224.80
2019-05-02T12:19:52.333Z,100225.36
2019-05-02T12:24:56.281Z,100227.59
2019-05-02T12:30:00.353Z,100222.00
2019-05-02T12:35:04.915Z,100208.27
2019-05-02T12:40:12.065Z,100214.80
2019-05-02T12:45:16.167Z,100204.60
2019-05-02T12:50:20.232Z,100197.91
2019-05-02T12:55:24.209Z,100196.00
2019-05-02T13:00:28.331Z,100187.07
2019-05-02T13:05:32.362Z,100182.95
2019-05-02T13:10:36.383Z,100179.10
2019-05-02T13:15:42.370Z,100181.94
2019-05-02T13:20:46.425Z,100175.63
2019-05-02T13:25:51.823Z,100175.34
2019-05-02T13:30:55.957Z,100174.27
2019-05-02T13:36:00.031Z,100164.97
2019-05-02T13:41:04.459Z,100167.86
2019-05-02T13:46:08.632Z,100161.74
2019-05-02T13:51:12.692Z,100158.45
2019-05-02T13:56:17.166Z,100143.11
2019-05-02T14:01:22.410Z,100138.16
2019-05-02T14:06:30.305Z,100145.45
2019-05-02T14:11:32.412Z,100137.20
2019-05-02T14:16:36.428Z,100124.02
2019-05-02T14:21:42.148Z,100132.27
2019-05-02T14:26:46.267Z,100124.87
2019-05-02T14:31:51.945Z,100117.66
2019-05-02T14:36:59.347Z,100119.22
2019-05-02T14:42:03.017Z,100114.13
2019-05-02T14:47:09.994Z,100100.98
2019-05-02T14:52:12.869Z,100090.58
2019-05-02T14:57:22.054Z,100083.41
2019-05-02T15:02:23.052Z,100082.36
2019-05-02T15:07:27.113Z,100086.14
2019-05-02T15:12:32.518Z,100095.58
2019-05-02T15:17:37.967Z,100089.31
2019-05-02T15:22:42.617Z,100088.80
2019-05-02T15:27:49.882Z,100088.30
2019-05-02T15:32:53.696Z,100091.44
2019-05-02T15:38:04.567Z,100078.23
2019-05-02T15:43:09.491Z,100064.61
2019-05-02T15:48:14.651Z,100054.55
2019-05-02T15:53:17.849Z,100048.25
2019-05-02T15:58:23.818Z,100045.03
2019-05-02T16:03:27.653Z,100044.63
2019-05-02T16:08:32.583Z,100044.48
2019-05-02T16:13:36.740Z,100038.77
2019-05-02T16:18:43.507Z,100035.97
2019-05-02T16:23:46.640Z,100031.22
2019-05-02T16:28:51.596Z,100026.73
2019-05-02T16:33:57.473Z,100017.66
2019-05-02T16:39:04.696Z,100018.74
2019-05-02T16:44:07.588Z,100010.98
2019-05-02T16:49:15.675Z,100010.47
2019-05-02T16:54:17.714Z,100007.27
2019-05-02T16:59:23.243Z,100010.30
2019-05-02T17:04:27.517Z,100005.44
2019-05-02T17:09:33.924Z,100002.25
2019-05-02T17:14:37.353Z,100000.41
2019-05-02T17:19:41.498Z,100006.92
2019-05-02T17:24:45.529Z,99994.09
2019-05-02T17:30:07.165Z,100000.19
2019-05-02T17:35:14.608Z,100001.04
2019-05-02T17:40:25.944Z,100002.98
2019-05-02T17:45:33.428Z,100003.09
2019-05-02T17:50:34.425Z,100012.69
2019-05-02T17:55:40.279Z,100013.37
2019-05-02T18:00:47.354Z,100002.59
2019-05-02T18:05:50.481Z,100004.55
2019-05-02T18:10:58.107Z,99994.41
2019-05-02T18:16:00.373Z,99987.45
2019-05-02T18:21:04.672Z,99986.52
2019-05-02T18:26:08.976Z,99987.03
2019-05-02T18:31:13.176Z,99995.27
2019-05-02T18:36:22.723Z,99997.45
2019-05-02T18:41:23.413Z,99995.14
2019-05-02T18:46:27.603Z,99998.31
2019-05-02T18:51:32.163Z,99995.44
2019-05-02T18:56:42.321Z,99995.98
2019-05-02T19:01:52.677Z,99998.03
2019-05-02T19:06:54.888Z,99993.58
2019-05-02T19:12:05.270Z,99986.67
2019-05-02T19:17:07.469Z,99992.87
2019-05-02T19:22:13.266Z,99994.70
2019-05-02T19:27:21.057Z,99995.22
2019-05-02T19:32:26.985Z,99990.23
2019-05-02T19:37:31.500Z,99982.48
2019-05-02T19:42:35.764Z,99984.63
2019-05-02T19:47:42.021Z,99991.95
2019-05-02T19:52:46.094Z,99990.47
2019-05-02T19:57:52.260Z,99986.45
2019-05-02T20:02:56.229Z,99982.09
2019-05-02T20:08:02.393Z,99978.80
2019-05-02T20:13:06.924Z,99976.91
2019-05-02T20:18:11.937Z,99972.78
2019-05-02T20:23:18.675Z,99971.91
2019-05-02T20:28:23.062Z,99977.09
2019-05-02T20:33:28.082Z,99980.28
2019-05-02T20:38:33.914Z,99981.20
2019-05-02T20:43:42.817Z,99987.92
2019-05-02T20:48:46.245Z,99988.62
2019-05-02T20:53:52.614Z,99983.80
2019-05-02T20:58:58.350Z,99989.30
2019-05-02T21:04:03.760Z,100006.70
2019-05-02T21:09:09.844Z,100019.59
2019-05-02T21:14:14.526Z,100026.64
2019-05-02T21:19:19.257Z,100029.85
2019-05-02T21:24:25.388Z,100025.84
2019-05-02T21:29:32.012Z,100027.14
2019-05-02T21:34:36.388Z,100021.84
2019-05-02T21:39:42.421Z,100033.72
2019-05-02T21:44:46.278Z,100041.16
2019-05-02T21:49:52.375Z,100044.66
2019-05-02T21:54:56.112Z,100040.20
2019-05-02T22:00:02.332Z,100067.86
2019-05-02T22:05:06.257Z,100067.86
2019-05-02T22:10:12.112Z,100077.89
2019-05-02T22:15:16.339Z,100082.69
2019-05-02T22:20:20.568Z,100075.06
2019-05-02T22:25:24.674Z,100071.45
2019-05-02T22:30:28.732Z,100064.51
2019-05-02T22:35:34.226Z,100071.84
2019-05-02T22:40:38.321Z,100083.81
2019-05-02T22:45:42.363Z,100089.95
2019-05-02T22:50:46.884Z,100090.02
2019-05-02T22:55:51.779Z,100090.65
2019-05-02T23:00:55.890Z,100097.19
2019-05-02T23:06:01.746Z,100107.36
2019-05-02T23:11:05.767Z,100103.27
2019-05-02T23:16:09.841Z,100107.10
2019-05-02T23:21:13.894Z,100104.95
2019-05-02T23:26:18.051Z,100101.96
2019-05-02T23:31:22.674Z,100094.45
2019-05-02T23:36:28.342Z,100096.92
2019-05-02T23:41:32.965Z,100100.84
2019-05-02T23:46:37.442Z,100086.97
2019-05-02T23:51:42.745Z,100094.97
2019-05-02T23:56:46.894Z,100096.31
